sensor_id;sensor_type;location;lat;lon;timestamp;P1;durP1;ratioP1;P2;durP2;ratioP2
50681;SDS011;36779;52.168;20.878;2023-12-29T00:00:11;9.70;;;3.70;;
50681;SDS011;36779;52.168;20.878;2023-12-29T00:03:24;8.20;;;3.00;;
50681;SDS011;36779;52.168;20.878;2023-12-29T00:06:15;7.80;;;3.00;;
50681;SDS011;36779;52.168;20.878;2023-12-29T00:09:06;13.00;;;3.70;;
50681;SDS011;36779;52.168;20.878;2023-12-29T00:11:56;8.10;;;2.80;;
50681;SDS011;36779;52.168;20.878;2023-12-29T00:14:46;9.30;;;3.10;;
50681;SDS011;36779;52.168;20.878;2023-12-29T00:17:21;8.60;;;3.00;;
50681;SDS011;36779;52.168;20.878;2023-12-29T00:20:13;10.10;;;3.50;;
50681;SDS011;36779;52.168;20.878;2023-12-29T00:23:25;8.10;;;3.30;;
50681;SDS011;36779;52.168;20.878;2023-12-29T00:26:17;6.40;;;3.10;;
50681;SDS011;36779;52.168;20.878;2023-12-29T00:29:07;8.30;;;3.10;;
50681;SDS011;36779;52.168;20.878;2023-12-29T00:31:59;9.60;;;3.30;;
50681;SDS011;36779;52.168;20.878;2023-12-29T00:34:51;9.80;;;3.20;;
50681;SDS011;36779;52.168;20.878;2023-12-29T00:37:42;8.60;;;3.00;;
50681;SDS011;36779;52.168;20.878;2023-12-29T00:40:34;7.70;;;3.10;;
50681;SDS011;36779;52.168;20.878;2023-12-29T00:43:29;8.70;;;3.00;;
50681;SDS011;36779;52.168;20.878;2023-12-29T00:46:20;8.70;;;3.00;;
50681;SDS011;36779;52.168;20.878;2023-12-29T00:49:12;7.90;;;2.70;;
50681;SDS011;36779;52.168;20.878;2023-12-29T00:52:03;9.10;;;3.10;;
50681;SDS011;36779;52.168;20.878;2023-12-29T00:54:55;7.30;;;3.40;;
50681;SDS011;36779;52.168;20.878;2023-12-29T01:01:16;6.10;;;2.60;;
50681;SDS011;36779;52.168;20.878;2023-12-29T01:04:06;9.90;;;3.60;;
50681;SDS011;36779;52.168;20.878;2023-12-29T01:06:58;9.10;;;3.40;;
50681;SDS011;36779;52.168;20.878;2023-12-29T01:09:48;12.50;;;4.00;;
50681;SDS011;36779;52.168;20.878;2023-12-29T01:12:37;8.00;;;3.60;;
50681;SDS011;36779;52.168;20.878;2023-12-29T01:15:07;8.30;;;3.60;;
50681;SDS011;36779;52.168;20.878;2023-12-29T01:17:57;14.20;;;4.10;;
50681;SDS011;36779;52.168;20.878;2023-12-29T01:20:48;9.90;;;3.50;;
50681;SDS011;36779;52.168;20.878;2023-12-29T01:23:40;9.70;;;3.90;;
50681;SDS011;36779;52.168;20.878;2023-12-29T01:26:37;10.20;;;3.50;;
50681;SDS011;36779;52.168;20.878;2023-12-29T01:29:27;8.70;;;3.60;;
50681;SDS011;36779;52.168;20.878;2023-12-29T01:32:18;7.70;;;3.60;;
50681;SDS011;36779;52.168;20.878;2023-12-29T01:35:08;9.80;;;3.40;;
50681;SDS011;36779;52.168;20.878;2023-12-29T01:38:01;13.00;;;3.60;;
50681;SDS011;36779;52.168;20.878;2023-12-29T01:40:52;9.80;;;3.70;;
50681;SDS011;36779;52.168;20.878;2023-12-29T01:47:10;10.00;;;3.70;;
50681;SDS011;36779;52.168;20.878;2023-12-29T01:50:05;11.40;;;4.10;;
50681;SDS011;36779;52.168;20.878;2023-12-29T01:52:58;9.80;;;3.60;;
50681;SDS011;36779;52.168;20.878;2023-12-29T01:55:39;9.50;;;3.80;;
50681;SDS011;36779;52.168;20.878;2023-12-29T01:58:31;10.10;;;4.00;;
50681;SDS011;36779;52.168;20.878;2023-12-29T02:01:23;11.00;;;4.00;;
50681;SDS011;36779;52.168;20.878;2023-12-29T02:04:13;10.00;;;4.10;;
50681;SDS011;36779;52.168;20.878;2023-12-29T02:07:05;8.80;;;4.10;;
50681;SDS011;36779;52.168;20.878;2023-12-29T02:09:56;12.90;;;4.50;;
50681;SDS011;36779;52.168;20.878;2023-12-29T02:12:28;15.70;;;4.60;;
50681;SDS011;36779;52.168;20.878;2023-12-29T02:15:27;10.90;;;4.50;;
50681;SDS011;36779;52.168;20.878;2023-12-29T02:18:17;9.00;;;3.90;;
50681;SDS011;36779;52.168;20.878;2023-12-29T02:21:10;9.20;;;4.50;;
50681;SDS011;36779;52.168;20.878;2023-12-29T02:24:00;13.50;;;3.90;;
50681;SDS011;36779;52.168;20.878;2023-12-29T02:26:53;11.00;;;4.10;;
50681;SDS011;36779;52.168;20.878;2023-12-29T02:30:02;11.40;;;4.20;;
50681;SDS011;36779;52.168;20.878;2023-12-29T02:32:59;8.50;;;3.90;;
50681;SDS011;36779;52.168;20.878;2023-12-29T02:35:52;15.50;;;4.60;;
50681;SDS011;36779;52.168;20.878;2023-12-29T02:38:48;14.80;;;4.40;;
50681;SDS011;36779;52.168;20.878;2023-12-29T02:41:37;9.20;;;4.30;;
50681;SDS011;36779;52.168;20.878;2023-12-29T02:44:27;13.40;;;5.00;;
50681;SDS011;36779;52.168;20.878;2023-12-29T02:47:19;15.20;;;5.20;;
50681;SDS011;36779;52.168;20.878;2023-12-29T02:50:10;12.50;;;5.20;;
50681;SDS011;36779;52.168;20.878;2023-12-29T02:53:02;13.30;;;4.60;;
50681;SDS011;36779;52.168;20.878;2023-12-29T02:55:52;13.40;;;5.10;;
50681;SDS011;36779;52.168;20.878;2023-12-29T02:58:41;14.20;;;4.50;;
50681;SDS011;36779;52.168;20.878;2023-12-29T03:04:45;12.70;;;4.50;;
50681;SDS011;36779;52.168;20.878;2023-12-29T03:07:38;13.00;;;5.50;;
50681;SDS011;36779;52.168;20.878;2023-12-29T03:10:28;11.00;;;4.50;;
50681;SDS011;36779;52.168;20.878;2023-12-29T03:13:19;11.70;;;4.80;;
50681;SDS011;36779;52.168;20.878;2023-12-29T03:16:11;17.50;;;5.30;;
50681;SDS011;36779;52.168;20.878;2023-12-29T03:19:02;12.90;;;5.50;;
50681;SDS011;36779;52.168;20.878;2023-12-29T03:21:52;10.40;;;4.90;;
50681;SDS011;36779;52.168;20.878;2023-12-29T03:24:43;11.40;;;4.80;;
50681;SDS011;36779;52.168;20.878;2023-12-29T03:27:38;12.70;;;5.60;;
50681;SDS011;36779;52.168;20.878;2023-12-29T03:30:27;16.00;;;5.70;;
50681;SDS011;36779;52.168;20.878;2023-12-29T03:33:17;16.40;;;6.10;;
50681;SDS011;36779;52.168;20.878;2023-12-29T03:36:09;12.40;;;5.40;;
50681;SDS011;36779;52.168;20.878;2023-12-29T03:38:58;14.90;;;5.30;;
50681;SDS011;36779;52.168;20.878;2023-12-29T03:41:50;14.40;;;5.90;;
50681;SDS011;36779;52.168;20.878;2023-12-29T03:44:41;14.60;;;5.30;;
50681;SDS011;36779;52.168;20.878;2023-12-29T03:47:30;11.80;;;5.60;;
50681;SDS011;36779;52.168;20.878;2023-12-29T03:50:23;18.90;;;5.90;;
50681;SDS011;36779;52.168;20.878;2023-12-29T03:53:17;11.80;;;5.40;;
50681;SDS011;36779;52.168;20.878;2023-12-29T03:56:08;20.90;;;6.30;;
50681;SDS011;36779;52.168;20.878;2023-12-29T03:59:06;12.30;;;5.70;;
50681;SDS011;36779;52.168;20.878;2023-12-29T04:01:57;12.70;;;5.10;;
50681;SDS011;36779;52.168;20.878;2023-12-29T04:04:48;14.70;;;6.40;;
50681;SDS011;36779;52.168;20.878;2023-12-29T04:07:39;18.30;;;6.10;;
50681;SDS011;36779;52.168;20.878;2023-12-29T04:10:30;18.50;;;6.60;;
50681;SDS011;36779;52.168;20.878;2023-12-29T04:13:24;19.90;;;5.70;;
50681;SDS011;36779;52.168;20.878;2023-12-29T04:16:14;13.70;;;5.40;;
50681;SDS011;36779;52.168;20.878;2023-12-29T04:19:04;11.60;;;5.90;;
50681;SDS011;36779;52.168;20.878;2023-12-29T04:21:54;12.40;;;5.30;;
50681;SDS011;36779;52.168;20.878;2023-12-29T04:24:45;15.80;;;5.70;;
50681;SDS011;36779;52.168;20.878;2023-12-29T04:27:37;15.30;;;7.20;;
50681;SDS011;36779;52.168;20.878;2023-12-29T04:30:28;15.20;;;5.60;;
50681;SDS011;36779;52.168;20.878;2023-12-29T04:33:19;16.70;;;6.20;;
50681;SDS011;36779;52.168;20.878;2023-12-29T04:40:39;13.10;;;4.80;;
50681;SDS011;36779;52.168;20.878;2023-12-29T04:43:29;13.00;;;6.40;;
50681;SDS011;36779;52.168;20.878;2023-12-29T04:46:23;15.60;;;6.00;;
50681;SDS011;36779;52.168;20.878;2023-12-29T04:52:55;12.80;;;5.60;;
50681;SDS011;36779;52.168;20.878;2023-12-29T04:55:46;17.50;;;5.70;;
50681;SDS011;36779;52.168;20.878;2023-12-29T04:58:26;14.80;;;5.90;;
50681;SDS011;36779;52.168;20.878;2023-12-29T05:01:38;11.50;;;5.60;;
50681;SDS011;36779;52.168;20.878;2023-12-29T05:04:27;13.00;;;5.30;;
50681;SDS011;36779;52.168;20.878;2023-12-29T05:07:09;11.20;;;5.10;;
50681;SDS011;36779;52.168;20.878;2023-12-29T05:09:46;13.40;;;4.90;;
50681;SDS011;36779;52.168;20.878;2023-12-29T05:12:18;11.80;;;5.60;;
50681;SDS011;36779;52.168;20.878;2023-12-29T05:15:10;11.50;;;5.30;;
50681;SDS011;36779;52.168;20.878;2023-12-29T05:18:07;11.40;;;4.70;;
50681;SDS011;36779;52.168;20.878;2023-12-29T05:20:46;13.60;;;5.00;;
50681;SDS011;36779;52.168;20.878;2023-12-29T05:23:45;14.10;;;5.10;;
50681;SDS011;36779;52.168;20.878;2023-12-29T05:26:16;10.60;;;4.50;;
50681;SDS011;36779;52.168;20.878;2023-12-29T05:29:07;15.40;;;5.20;;
50681;SDS011;36779;52.168;20.878;2023-12-29T05:31:55;9.30;;;4.20;;
50681;SDS011;36779;52.168;20.878;2023-12-29T05:34:46;14.10;;;4.90;;
50681;SDS011;36779;52.168;20.878;2023-12-29T05:38:15;9.20;;;4.20;;
50681;SDS011;36779;52.168;20.878;2023-12-29T05:41:04;8.80;;;4.40;;
50681;SDS011;36779;52.168;20.878;2023-12-29T05:44:01;11.40;;;4.40;;
50681;SDS011;36779;52.168;20.878;2023-12-29T05:46:51;11.40;;;4.30;;
50681;SDS011;36779;52.168;20.878;2023-12-29T05:49:45;11.50;;;4.90;;
50681;SDS011;36779;52.168;20.878;2023-12-29T05:52:18;11.30;;;4.80;;
50681;SDS011;36779;52.168;20.878;2023-12-29T05:54:48;12.70;;;4.70;;
50681;SDS011;36779;52.168;20.878;2023-12-29T05:57:38;14.20;;;4.60;;
50681;SDS011;36779;52.168;20.878;2023-12-29T06:00:29;16.30;;;4.80;;
50681;SDS011;36779;52.168;20.878;2023-12-29T06:03:19;10.70;;;4.60;;
50681;SDS011;36779;52.168;20.878;2023-12-29T06:06:19;11.20;;;4.30;;
50681;SDS011;36779;52.168;20.878;2023-12-29T06:09:07;14.00;;;4.20;;
50681;SDS011;36779;52.168;20.878;2023-12-29T06:12:05;12.20;;;4.60;;
50681;SDS011;36779;52.168;20.878;2023-12-29T06:14:58;6.90;;;3.10;;
50681;SDS011;36779;52.168;20.878;2023-12-29T06:17:50;10.20;;;3.30;;
50681;SDS011;36779;52.168;20.878;2023-12-29T06:20:43;8.20;;;2.80;;
50681;SDS011;36779;52.168;20.878;2023-12-29T06:23:35;9.20;;;3.10;;
50681;SDS011;36779;52.168;20.878;2023-12-29T06:26:25;7.20;;;3.40;;
50681;SDS011;36779;52.168;20.878;2023-12-29T06:29:29;9.30;;;3.30;;
50681;SDS011;36779;52.168;20.878;2023-12-29T06:32:44;8.80;;;3.70;;
50681;SDS011;36779;52.168;20.878;2023-12-29T06:35:38;8.90;;;3.90;;
50681;SDS011;36779;52.168;20.878;2023-12-29T06:38:30;7.50;;;3.60;;
50681;SDS011;36779;52.168;20.878;2023-12-29T06:41:26;6.60;;;3.20;;
50681;SDS011;36779;52.168;20.878;2023-12-29T06:44:27;8.80;;;3.10;;
50681;SDS011;36779;52.168;20.878;2023-12-29T06:47:18;9.70;;;3.70;;
50681;SDS011;36779;52.168;20.878;2023-12-29T06:50:10;9.20;;;4.00;;
50681;SDS011;36779;52.168;20.878;2023-12-29T06:53:11;9.30;;;3.30;;
50681;SDS011;36779;52.168;20.878;2023-12-29T06:56:09;9.70;;;3.20;;
50681;SDS011;36779;52.168;20.878;2023-12-29T06:59:05;11.90;;;4.30;;
50681;SDS011;36779;52.168;20.878;2023-12-29T07:01:56;7.30;;;3.50;;
50681;SDS011;36779;52.168;20.878;2023-12-29T07:04:42;6.70;;;3.20;;
50681;SDS011;36779;52.168;20.878;2023-12-29T07:07:42;11.10;;;4.10;;
50681;SDS011;36779;52.168;20.878;2023-12-29T07:10:36;9.50;;;3.40;;
50681;SDS011;36779;52.168;20.878;2023-12-29T07:13:26;9.70;;;4.00;;
50681;SDS011;36779;52.168;20.878;2023-12-29T07:16:17;9.20;;;3.50;;
50681;SDS011;36779;52.168;20.878;2023-12-29T07:19:09;11.10;;;4.00;;
50681;SDS011;36779;52.168;20.878;2023-12-29T07:22:01;11.70;;;4.80;;
50681;SDS011;36779;52.168;20.878;2023-12-29T07:24:51;10.90;;;4.70;;
50681;SDS011;36779;52.168;20.878;2023-12-29T07:27:44;12.90;;;5.00;;
50681;SDS011;36779;52.168;20.878;2023-12-29T07:30:35;8.20;;;4.00;;
50681;SDS011;36779;52.168;20.878;2023-12-29T07:33:35;11.70;;;3.50;;
50681;SDS011;36779;52.168;20.878;2023-12-29T07:36:29;11.30;;;4.30;;
50681;SDS011;36779;52.168;20.878;2023-12-29T07:39:19;11.00;;;4.70;;
50681;SDS011;36779;52.168;20.878;2023-12-29T07:42:14;15.70;;;4.50;;
50681;SDS011;36779;52.168;20.878;2023-12-29T07:45:07;10.60;;;4.70;;
50681;SDS011;36779;52.168;20.878;2023-12-29T07:47:59;10.50;;;4.30;;
50681;SDS011;36779;52.168;20.878;2023-12-29T07:51:07;10.80;;;5.30;;
50681;SDS011;36779;52.168;20.878;2023-12-29T07:54:02;8.80;;;4.30;;
50681;SDS011;36779;52.168;20.878;2023-12-29T07:56:55;9.20;;;4.10;;
50681;SDS011;36779;52.168;20.878;2023-12-29T07:59:44;9.30;;;3.70;;
50681;SDS011;36779;52.168;20.878;2023-12-29T08:02:36;9.60;;;3.20;;
50681;SDS011;36779;52.168;20.878;2023-12-29T08:05:31;8.00;;;2.90;;
50681;SDS011;36779;52.168;20.878;2023-12-29T08:12:15;5.70;;;2.70;;
50681;SDS011;36779;52.168;20.878;2023-12-29T08:15:35;5.10;;;2.80;;
50681;SDS011;36779;52.168;20.878;2023-12-29T08:18:41;7.60;;;3.10;;
50681;SDS011;36779;52.168;20.878;2023-12-29T08:21:28;6.70;;;2.90;;
50681;SDS011;36779;52.168;20.878;2023-12-29T08:24:19;7.20;;;3.30;;
50681;SDS011;36779;52.168;20.878;2023-12-29T08:27:23;11.60;;;3.50;;
50681;SDS011;36779;52.168;20.878;2023-12-29T08:30:17;5.90;;;3.10;;
50681;SDS011;36779;52.168;20.878;2023-12-29T08:33:12;8.30;;;3.20;;
50681;SDS011;36779;52.168;20.878;2023-12-29T08:36:10;4.00;;;2.10;;
50681;SDS011;36779;52.168;20.878;2023-12-29T08:39:13;9.60;;;3.70;;
50681;SDS011;36779;52.168;20.878;2023-12-29T08:42:30;6.70;;;3.30;;
50681;SDS011;36779;52.168;20.878;2023-12-29T08:45:42;10.90;;;3.50;;
50681;SDS011;36779;52.168;20.878;2023-12-29T08:49:17;7.20;;;3.70;;
50681;SDS011;36779;52.168;20.878;2023-12-29T08:52:10;7.50;;;3.40;;
50681;SDS011;36779;52.168;20.878;2023-12-29T08:55:03;9.00;;;3.80;;
50681;SDS011;36779;52.168;20.878;2023-12-29T08:57:58;8.80;;;3.90;;
50681;SDS011;36779;52.168;20.878;2023-12-29T09:00:30;8.70;;;3.70;;
50681;SDS011;36779;52.168;20.878;2023-12-29T09:03:31;14.70;;;5.50;;
50681;SDS011;36779;52.168;20.878;2023-12-29T09:06:24;19.10;;;9.90;;
50681;SDS011;36779;52.168;20.878;2023-12-29T09:09:18;11.80;;;6.30;;
50681;SDS011;36779;52.168;20.878;2023-12-29T09:12:10;10.80;;;6.20;;
50681;SDS011;36779;52.168;20.878;2023-12-29T09:15:01;10.40;;;4.70;;
50681;SDS011;36779;52.168;20.878;2023-12-29T09:18:12;10.10;;;5.80;;
50681;SDS011;36779;52.168;20.878;2023-12-29T09:21:17;9.80;;;5.10;;
50681;SDS011;36779;52.168;20.878;2023-12-29T09:24:08;7.80;;;3.90;;
50681;SDS011;36779;52.168;20.878;2023-12-29T09:26:58;7.10;;;3.40;;
50681;SDS011;36779;52.168;20.878;2023-12-29T09:30:12;4.50;;;2.50;;
50681;SDS011;36779;52.168;20.878;2023-12-29T09:33:25;7.70;;;2.60;;
50681;SDS011;36779;52.168;20.878;2023-12-29T09:36:20;4.90;;;2.10;;
50681;SDS011;36779;52.168;20.878;2023-12-29T09:39:49;3.90;;;2.60;;
50681;SDS011;36779;52.168;20.878;2023-12-29T09:42:48;8.90;;;3.10;;
50681;SDS011;36779;52.168;20.878;2023-12-29T09:46:17;5.70;;;2.10;;
50681;SDS011;36779;52.168;20.878;2023-12-29T09:49:36;7.50;;;2.50;;
50681;SDS011;36779;52.168;20.878;2023-12-29T09:52:55;8.50;;;2.60;;
50681;SDS011;36779;52.168;20.878;2023-12-29T09:56:42;5.80;;;2.80;;
50681;SDS011;36779;52.168;20.878;2023-12-29T09:59:37;10.50;;;3.60;;
50681;SDS011;36779;52.168;20.878;2023-12-29T10:02:43;6.00;;;2.50;;
50681;SDS011;36779;52.168;20.878;2023-12-29T10:05:39;9.70;;;4.10;;
50681;SDS011;36779;52.168;20.878;2023-12-29T10:08:51;9.60;;;3.60;;
50681;SDS011;36779;52.168;20.878;2023-12-29T10:12:05;5.30;;;3.00;;
50681;SDS011;36779;52.168;20.878;2023-12-29T10:18:56;8.50;;;2.90;;
50681;SDS011;36779;52.168;20.878;2023-12-29T10:22:20;4.40;;;2.50;;
50681;SDS011;36779;52.168;20.878;2023-12-29T10:26:16;5.90;;;2.80;;
50681;SDS011;36779;52.168;20.878;2023-12-29T10:29:24;7.00;;;3.40;;
50681;SDS011;36779;52.168;20.878;2023-12-29T10:32:51;5.50;;;2.10;;
50681;SDS011;36779;52.168;20.878;2023-12-29T10:36:16;7.50;;;3.10;;
50681;SDS011;36779;52.168;20.878;2023-12-29T10:40:17;7.40;;;2.80;;
50681;SDS011;36779;52.168;20.878;2023-12-29T10:43:37;7.20;;;3.00;;
50681;SDS011;36779;52.168;20.878;2023-12-29T10:47:08;2.90;;;1.60;;
50681;SDS011;36779;52.168;20.878;2023-12-29T10:50:53;5.40;;;2.70;;
50681;SDS011;36779;52.168;20.878;2023-12-29T10:54:41;5.10;;;1.80;;
50681;SDS011;36779;52.168;20.878;2023-12-29T10:57:35;7.30;;;2.70;;
50681;SDS011;36779;52.168;20.878;2023-12-29T11:00:44;5.20;;;2.30;;
50681;SDS011;36779;52.168;20.878;2023-12-29T11:04:01;7.10;;;3.70;;
50681;SDS011;36779;52.168;20.878;2023-12-29T11:07:53;5.10;;;2.30;;
50681;SDS011;36779;52.168;20.878;2023-12-29T11:11:49;8.10;;;3.10;;
50681;SDS011;36779;52.168;20.878;2023-12-29T11:15:26;7.90;;;3.50;;
50681;SDS011;36779;52.168;20.878;2023-12-29T11:18:54;5.70;;;3.20;;
50681;SDS011;36779;52.168;20.878;2023-12-29T11:21:46;5.10;;;2.20;;
50681;SDS011;36779;52.168;20.878;2023-12-29T11:24:37;6.20;;;3.50;;
50681;SDS011;36779;52.168;20.878;2023-12-29T11:27:31;7.50;;;3.10;;
50681;SDS011;36779;52.168;20.878;2023-12-29T11:31:04;4.70;;;2.70;;
50681;SDS011;36779;52.168;20.878;2023-12-29T11:34:34;6.00;;;2.90;;
50681;SDS011;36779;52.168;20.878;2023-12-29T11:38:21;4.60;;;2.60;;
50681;SDS011;36779;52.168;20.878;2023-12-29T11:42:12;9.20;;;3.00;;
50681;SDS011;36779;52.168;20.878;2023-12-29T11:46:08;6.50;;;3.20;;
50681;SDS011;36779;52.168;20.878;2023-12-29T11:49:58;5.80;;;2.70;;
50681;SDS011;36779;52.168;20.878;2023-12-29T11:53:48;4.80;;;2.60;;
50681;SDS011;36779;52.168;20.878;2023-12-29T11:56:53;7.30;;;2.80;;
50681;SDS011;36779;52.168;20.878;2023-12-29T12:00:06;5.60;;;3.10;;
50681;SDS011;36779;52.168;20.878;2023-12-29T12:03:25;13.50;;;6.80;;
50681;SDS011;36779;52.168;20.878;2023-12-29T12:06:25;10.70;;;4.00;;
50681;SDS011;36779;52.168;20.878;2023-12-29T12:09:41;7.20;;;3.80;;
50681;SDS011;36779;52.168;20.878;2023-12-29T12:13:07;4.40;;;2.60;;
50681;SDS011;36779;52.168;20.878;2023-12-29T12:16:04;5.60;;;2.50;;
50681;SDS011;36779;52.168;20.878;2023-12-29T12:19:15;4.00;;;2.30;;
50681;SDS011;36779;52.168;20.878;2023-12-29T12:22:16;7.50;;;3.40;;
50681;SDS011;36779;52.168;20.878;2023-12-29T12:29:46;12.00;;;6.60;;
50681;SDS011;36779;52.168;20.878;2023-12-29T12:33:42;9.50;;;3.10;;
50681;SDS011;36779;52.168;20.878;2023-12-29T12:36:55;11.00;;;5.10;;
50681;SDS011;36779;52.168;20.878;2023-12-29T12:39:46;7.90;;;4.40;;
50681;SDS011;36779;52.168;20.878;2023-12-29T12:42:38;9.40;;;3.20;;
50681;SDS011;36779;52.168;20.878;2023-12-29T12:45:28;9.80;;;4.10;;
50681;SDS011;36779;52.168;20.878;2023-12-29T12:48:28;6.40;;;3.60;;
50681;SDS011;36779;52.168;20.878;2023-12-29T12:51:22;7.20;;;3.50;;
50681;SDS011;36779;52.168;20.878;2023-12-29T12:54:32;10.60;;;3.60;;
50681;SDS011;36779;52.168;20.878;2023-12-29T12:58:27;7.70;;;4.00;;
50681;SDS011;36779;52.168;20.878;2023-12-29T13:01:42;10.20;;;5.00;;
50681;SDS011;36779;52.168;20.878;2023-12-29T13:04:48;9.60;;;3.70;;
50681;SDS011;36779;52.168;20.878;2023-12-29T13:07:57;10.10;;;4.60;;
50681;SDS011;36779;52.168;20.878;2023-12-29T13:11:43;9.00;;;4.50;;
50681;SDS011;36779;52.168;20.878;2023-12-29T13:14:46;5.50;;;3.00;;
50681;SDS011;36779;52.168;20.878;2023-12-29T13:18:37;5.90;;;2.80;;
50681;SDS011;36779;52.168;20.878;2023-12-29T13:21:51;7.40;;;3.40;;
50681;SDS011;36779;52.168;20.878;2023-12-29T13:25:02;7.10;;;2.70;;
50681;SDS011;36779;52.168;20.878;2023-12-29T13:28:10;6.50;;;3.00;;
50681;SDS011;36779;52.168;20.878;2023-12-29T13:31:49;9.10;;;3.00;;
50681;SDS011;36779;52.168;20.878;2023-12-29T13:35:30;8.40;;;2.90;;
50681;SDS011;36779;52.168;20.878;2023-12-29T13:38:57;6.90;;;3.00;;
50681;SDS011;36779;52.168;20.878;2023-12-29T13:42:13;4.80;;;2.60;;
50681;SDS011;36779;52.168;20.878;2023-12-29T13:45:49;5.80;;;2.50;;
50681;SDS011;36779;52.168;20.878;2023-12-29T13:49:41;7.70;;;2.30;;
50681;SDS011;36779;52.168;20.878;2023-12-29T13:52:55;6.20;;;2.50;;
50681;SDS011;36779;52.168;20.878;2023-12-29T13:56:22;5.10;;;2.80;;
50681;SDS011;36779;52.168;20.878;2023-12-29T13:59:29;8.60;;;2.70;;
50681;SDS011;36779;52.168;20.878;2023-12-29T14:03:11;6.80;;;2.70;;
50681;SDS011;36779;52.168;20.878;2023-12-29T14:06:52;5.70;;;2.50;;
50681;SDS011;36779;52.168;20.878;2023-12-29T14:09:49;6.10;;;2.50;;
50681;SDS011;36779;52.168;20.878;2023-12-29T14:13:07;7.00;;;3.00;;
50681;SDS011;36779;52.168;20.878;2023-12-29T14:16:20;8.50;;;3.10;;
50681;SDS011;36779;52.168;20.878;2023-12-29T14:19:51;8.70;;;3.20;;
50681;SDS011;36779;52.168;20.878;2023-12-29T14:23:11;6.70;;;3.40;;
50681;SDS011;36779;52.168;20.878;2023-12-29T14:26:23;8.00;;;4.00;;
50681;SDS011;36779;52.168;20.878;2023-12-29T14:29:47;7.20;;;4.30;;
50681;SDS011;36779;52.168;20.878;2023-12-29T14:32:54;6.90;;;4.20;;
50681;SDS011;36779;52.168;20.878;2023-12-29T14:35:53;5.50;;;2.90;;
50681;SDS011;36779;52.168;20.878;2023-12-29T14:39:52;6.80;;;2.90;;
50681;SDS011;36779;52.168;20.878;2023-12-29T14:42:44;5.90;;;3.00;;
50681;SDS011;36779;52.168;20.878;2023-12-29T14:45:53;7.00;;;2.80;;
50681;SDS011;36779;52.168;20.878;2023-12-29T14:48:49;6.70;;;3.10;;
50681;SDS011;36779;52.168;20.878;2023-12-29T14:51:59;9.40;;;3.50;;
50681;SDS011;36779;52.168;20.878;2023-12-29T14:55:12;5.80;;;2.20;;
50681;SDS011;36779;52.168;20.878;2023-12-29T14:58:36;4.80;;;2.40;;
50681;SDS011;36779;52.168;20.878;2023-12-29T15:02:00;10.80;;;5.80;;
50681;SDS011;36779;52.168;20.878;2023-12-29T15:04:56;7.60;;;4.10;;
50681;SDS011;36779;52.168;20.878;2023-12-29T15:08:08;6.60;;;2.90;;
50681;SDS011;36779;52.168;20.878;2023-12-29T15:11:15;4.10;;;2.20;;
50681;SDS011;36779;52.168;20.878;2023-12-29T15:14:11;6.20;;;2.50;;
50681;SDS011;36779;52.168;20.878;2023-12-29T15:17:42;7.70;;;2.90;;
50681;SDS011;36779;52.168;20.878;2023-12-29T15:21:27;8.60;;;3.90;;
50681;SDS011;36779;52.168;20.878;2023-12-29T15:24:26;9.10;;;3.10;;
50681;SDS011;36779;52.168;20.878;2023-12-29T15:27:59;6.80;;;3.00;;
50681;SDS011;36779;52.168;20.878;2023-12-29T15:31:02;8.80;;;3.30;;
50681;SDS011;36779;52.168;20.878;2023-12-29T15:34:08;10.20;;;3.10;;
50681;SDS011;36779;52.168;20.878;2023-12-29T15:37:15;7.40;;;3.10;;
50681;SDS011;36779;52.168;20.878;2023-12-29T15:40:22;64.00;;;23.30;;
50681;SDS011;36779;52.168;20.878;2023-12-29T15:43:15;51.70;;;20.70;;
50681;SDS011;36779;52.168;20.878;2023-12-29T15:46:25;37.30;;;15.10;;
50681;SDS011;36779;52.168;20.878;2023-12-29T15:53:20;14.30;;;7.20;;
50681;SDS011;36779;52.168;20.878;2023-12-29T15:56:16;9.60;;;5.30;;
50681;SDS011;36779;52.168;20.878;2023-12-29T15:59:13;6.20;;;4.50;;
50681;SDS011;36779;52.168;20.878;2023-12-29T16:02:15;20.10;;;8.60;;
50681;SDS011;36779;52.168;20.878;2023-12-29T16:05:07;12.70;;;7.30;;
50681;SDS011;36779;52.168;20.878;2023-12-29T16:08:04;10.60;;;5.10;;
50681;SDS011;36779;52.168;20.878;2023-12-29T16:11:19;10.10;;;5.90;;
50681;SDS011;36779;52.168;20.878;2023-12-29T16:14:30;8.00;;;4.10;;
50681;SDS011;36779;52.168;20.878;2023-12-29T16:17:27;14.50;;;6.90;;
50681;SDS011;36779;52.168;20.878;2023-12-29T16:20:25;6.90;;;2.90;;
50681;SDS011;36779;52.168;20.878;2023-12-29T16:23:38;9.50;;;3.80;;
50681;SDS011;36779;52.168;20.878;2023-12-29T16:26:51;8.30;;;3.30;;
50681;SDS011;36779;52.168;20.878;2023-12-29T16:30:05;9.10;;;3.60;;
50681;SDS011;36779;52.168;20.878;2023-12-29T16:33:05;7.70;;;2.80;;
50681;SDS011;36779;52.168;20.878;2023-12-29T16:35:57;8.00;;;3.20;;
50681;SDS011;36779;52.168;20.878;2023-12-29T16:39:08;8.20;;;3.00;;
50681;SDS011;36779;52.168;20.878;2023-12-29T16:42:20;7.30;;;3.50;;
50681;SDS011;36779;52.168;20.878;2023-12-29T16:45:37;7.30;;;2.20;;
50681;SDS011;36779;52.168;20.878;2023-12-29T16:48:37;8.90;;;3.40;;
50681;SDS011;36779;52.168;20.878;2023-12-29T16:51:52;8.00;;;2.70;;
50681;SDS011;36779;52.168;20.878;2023-12-29T16:55:04;7.70;;;3.00;;
50681;SDS011;36779;52.168;20.878;2023-12-29T16:58:37;7.60;;;3.00;;
50681;SDS011;36779;52.168;20.878;2023-12-29T17:01:51;7.20;;;2.60;;
50681;SDS011;36779;52.168;20.878;2023-12-29T17:05:25;6.90;;;3.00;;
50681;SDS011;36779;52.168;20.878;2023-12-29T17:08:35;6.00;;;2.70;;
50681;SDS011;36779;52.168;20.878;2023-12-29T17:11:27;7.30;;;3.30;;
50681;SDS011;36779;52.168;20.878;2023-12-29T17:14:59;6.80;;;2.80;;
50681;SDS011;36779;52.168;20.878;2023-12-29T17:18:16;7.70;;;3.00;;
50681;SDS011;36779;52.168;20.878;2023-12-29T17:21:07;16.20;;;6.60;;
50681;SDS011;36779;52.168;20.878;2023-12-29T17:24:11;14.40;;;7.00;;
50681;SDS011;36779;52.168;20.878;2023-12-29T17:30:46;6.60;;;3.30;;
50681;SDS011;36779;52.168;20.878;2023-12-29T17:33:56;6.20;;;3.00;;
50681;SDS011;36779;52.168;20.878;2023-12-29T17:37:14;6.60;;;2.50;;
50681;SDS011;36779;52.168;20.878;2023-12-29T17:40:29;11.50;;;4.90;;
50681;SDS011;36779;52.168;20.878;2023-12-29T17:43:59;8.10;;;2.80;;
50681;SDS011;36779;52.168;20.878;2023-12-29T17:47:26;5.90;;;2.90;;
50681;SDS011;36779;52.168;20.878;2023-12-29T17:50:37;7.10;;;3.10;;
50681;SDS011;36779;52.168;20.878;2023-12-29T17:53:31;10.20;;;3.70;;
50681;SDS011;36779;52.168;20.878;2023-12-29T17:57:03;5.80;;;3.50;;
50681;SDS011;36779;52.168;20.878;2023-12-29T18:00:16;7.10;;;3.00;;
50681;SDS011;36779;52.168;20.878;2023-12-29T18:03:30;8.50;;;4.50;;
50681;SDS011;36779;52.168;20.878;2023-12-29T18:06:20;8.30;;;4.50;;
50681;SDS011;36779;52.168;20.878;2023-12-29T18:09:09;9.20;;;4.60;;
50681;SDS011;36779;52.168;20.878;2023-12-29T18:12:04;8.70;;;4.10;;
50681;SDS011;36779;52.168;20.878;2023-12-29T18:15:01;7.30;;;3.30;;
50681;SDS011;36779;52.168;20.878;2023-12-29T18:17:55;9.70;;;4.70;;
50681;SDS011;36779;52.168;20.878;2023-12-29T18:20:55;7.10;;;4.60;;
50681;SDS011;36779;52.168;20.878;2023-12-29T18:24:11;7.40;;;3.80;;
50681;SDS011;36779;52.168;20.878;2023-12-29T18:27:38;11.40;;;5.00;;
50681;SDS011;36779;52.168;20.878;2023-12-29T18:30:29;12.60;;;6.00;;
50681;SDS011;36779;52.168;20.878;2023-12-29T18:33:25;19.60;;;8.10;;
50681;SDS011;36779;52.168;20.878;2023-12-29T18:36:31;19.30;;;9.50;;